Time;durP1;ratioP1;P1;durP2;ratioP2;P2;SDS_P1;SDS_P2;PMS_P1;PMS_P2;Temp;Humidity;BMP_temperature;BMP_pressure;BME280_temperature;BME280_humidity;BME280_pressure;Samples;Min_cycle;Max_cycle;Signal;HPM_P1;HPM_P2
2021/05/12 00:00:06;;;;;;;4.33;2.40;;;;;;;12.35;56.23;100376.92;1682510;82;21036;-81
2021/05/12 00:02:34;;;;;;;7.45;2.33;;;;;;;12.27;56.59;100384.28;1707022;82;21064;-79
2021/05/12 00:05:01;;;;;;;4.03;2.50;;;;;;;12.16;56.49;100381.20;1682767;84;21084;-79
2021/05/12 00:07:27;;;;;;;2.87;2.42;;;;;;;12.06;56.64;100386.46;1682550;84;22307;-78
2021/05/12 00:09:54;;;;;;;5.28;2.30;;;;;;;11.98;56.65;100401.25;1682419;84;21068;-80
2021/05/12 00:12:21;;;;;;;3.55;2.22;;;;;;;11.87;56.42;100397.73;1682372;84;21178;-78
2021/05/12 00:14:47;;;;;;;5.00;2.42;;;;;;;11.79;56.34;100402.39;1707213;82;21103;-78
2021/05/12 00:17:18;;;;;;;3.72;2.05;;;;;;;11.68;55.72;100399.29;1706980;84;21588;-77
2021/05/12 00:19:43;;;;;;;5.10;1.90;;;;;;;11.61;55.72;100396.48;1706789;84;21110;-79
2021/05/12 00:24:37;;;;;;;4.60;2.00;;;;;;;11.46;55.18;100398.77;1707000;82;21108;-82
2021/05/12 00:27:05;;;;;;;6.47;2.40;;;;;;;11.38;55.62;100402.59;1695516;82;21616;-81
2021/05/12 00:29:32;;;;;;;3.27;1.95;;;;;;;11.32;56.40;100412.92;1678576;85;21641;-81
2021/05/12 00:31:59;;;;;;;3.37;2.33;;;;;;;11.20;56.87;100398.83;1678418;85;22104;-78
2021/05/12 00:34:26;;;;;;;3.42;2.40;;;;;;;11.14;57.55;100397.28;1678455;85;21598;-78
2021/05/12 00:36:52;;;;;;;2.72;2.00;;;;;;;11.07;57.88;100396.63;1689343;84;21186;-78
2021/05/12 00:39:19;;;;;;;5.75;2.20;;;;;;;10.99;57.93;100387.27;1682401;84;21120;-80
2021/05/12 00:41:46;;;;;;;5.10;2.62;;;;;;;10.93;59.05;100396.25;1706742;84;21198;-78
2021/05/12 00:44:19;;;;;;;3.05;2.20;;;;;;;10.87;59.54;100395.14;1699767;83;21108;-81
2021/05/12 00:46:47;;;;;;;8.03;2.30;;;;;;;10.77;58.15;100388.47;1694432;84;21091;-81
2021/05/12 00:49:13;;;;;;;3.95;2.47;;;;;;;10.71;59.46;100382.94;1694666;83;21733;-81
2021/05/12 00:51:40;;;;;;;4.05;2.50;;;;;;;10.64;58.41;100384.05;1717388;83;21135;-80
2021/05/12 00:54:07;;;;;;;4.85;2.08;;;;;;;10.57;58.01;100383.39;1714588;83;21049;-79
2021/05/12 00:56:34;;;;;;;3.05;2.30;;;;;;;10.48;58.07;100385.87;1717187;83;21275;-81
2021/05/12 00:59:01;;;;;;;4.67;2.80;;;;;;;10.45;58.46;100402.23;1717929;83;21127;-80
2021/05/12 01:01:28;;;;;;;2.85;2.25;;;;;;;10.39;58.74;100397.16;1718284;83;21050;-80
2021/05/12 01:03:55;;;;;;;5.50;2.60;;;;;;;10.32;58.74;100380.70;1719992;83;21047;-80
2021/05/12 01:06:28;;;;;;;6.42;2.27;;;;;;;10.26;58.98;100368.57;1720231;83;21265;-79
2021/05/12 01:08:55;;;;;;;2.80;2.35;;;;;;;10.20;58.97;100375.33;1696082;79;21098;-81
2021/05/12 01:11:22;;;;;;;4.50;2.45;;;;;;;10.13;59.36;100390.91;1696182;80;21001;-82
2021/05/12 01:13:50;;;;;;;5.45;2.67;;;;;;;10.09;59.71;100391.45;1696153;80;20929;-81
2021/05/12 01:16:19;;;;;;;5.40;2.87;;;;;;;10.01;60.17;100391.30;1720132;83;21048;-82
2021/05/12 01:18:46;;;;;;;3.62;2.50;;;;;;;9.96;60.76;100394.50;1717609;83;21237;-82
2021/05/12 01:21:13;;;;;;;7.67;3.17;;;;;;;9.88;61.17;100390.80;1717320;83;21099;-81
2021/05/12 01:23:44;;;;;;;6.50;2.87;;;;;;;9.81;61.47;100400.63;1690117;83;21076;-80
2021/05/12 01:26:20;;;;;;;5.60;2.95;;;;;;;9.74;61.47;100406.98;1716482;83;28108;-82
2021/05/12 01:28:49;;;;;;;8.30;2.90;;;;;;;9.66;62.13;100394.07;1688256;84;21096;-82
2021/05/12 01:31:35;;;;;;;10.55;2.92;;;;;;;9.59;61.95;100395.59;1653186;85;21132;-80
2021/05/12 01:34:03;;;;;;;7.22;2.80;;;;;;;9.54;61.78;100396.17;1715658;83;22220;-79
2021/05/12 01:36:31;;;;;;;8.73;2.90;;;;;;;9.44;61.68;100399.06;1701786;83;21667;-79
2021/05/12 01:38:58;;;;;;;5.15;2.50;;;;;;;9.40;61.94;100396.56;1662088;84;21165;-80
2021/05/12 01:41:26;;;;;;;11.28;2.50;;;;;;;9.32;61.96;100396.79;1688302;84;21571;-78
2021/05/12 01:43:55;;;;;;;8.28;2.65;;;;;;;9.26;62.14;100395.63;1680191;84;21135;-80
2021/05/12 01:46:21;;;;;;;10.38;2.58;;;;;;;9.20;62.40;100404.98;1661356;85;21115;-81
2021/05/12 01:49:37;;;;;;;6.87;2.72;;;;;;;9.19;64.04;100401.50;1747816;78;28079;-81
2021/05/12 01:52:04;;;;;;;5.70;2.80;;;;;;;9.10;63.64;100406.15;1717147;83;21044;-80
2021/05/12 01:54:31;;;;;;;4.03;2.17;;;;;;;9.05;63.77;100406.73;1717395;82;21158;-82
2021/05/12 01:56:58;;;;;;;4.70;2.15;;;;;;;8.98;63.90;100404.71;1717015;82;21116;-81
2021/05/12 01:59:25;;;;;;;3.45;2.20;;;;;;;8.93;63.94;100403.52;1717073;82;21027;-79
2021/05/12 02:01:52;;;;;;;6.33;2.30;;;;;;;8.87;64.01;100402.35;1717277;83;21698;-80
2021/05/12 02:04:19;;;;;;;5.33;2.60;;;;;;;8.82;64.05;100404.23;1688179;83;21437;-79
2021/05/12 02:06:46;;;;;;;5.72;2.70;;;;;;;8.78;64.25;100399.50;1688563;83;21091;-80
2021/05/12 02:09:12;;;;;;;8.03;2.70;;;;;;;8.73;64.29;100401.39;1717112;83;21015;-83
2021/05/12 02:11:39;;;;;;;9.20;2.60;;;;;;;8.66;64.63;100397.66;1717240;82;21019;-82
2021/05/12 02:14:07;;;;;;;3.42;2.62;;;;;;;8.65;64.59;100402.47;1717080;82;21071;-82
2021/05/12 02:16:34;;;;;;;4.87;2.52;;;;;;;8.60;64.60;100396.91;1688391;82;21071;-83
2021/05/12 02:19:02;;;;;;;3.02;2.40;;;;;;;8.56;64.99;100400.96;1688733;83;21134;-85
2021/05/12 02:21:29;;;;;;;6.90;2.83;;;;;;;8.52;65.27;100400.16;1688484;83;21155;-79
2021/05/12 02:23:56;;;;;;;6.55;3.10;;;;;;;8.49;65.59;100398.94;1716950;82;21091;-77
2021/05/12 02:26:22;;;;;;;10.80;2.85;;;;;;;8.47;65.80;100405.98;1688282;82;21705;-80
2021/05/12 02:28:49;;;;;;;11.18;4.00;;;;;;;8.45;65.78;100410.39;1717341;83;21055;-78
2021/05/12 02:31:16;;;;;;;16.55;3.90;;;;;;;8.42;66.03;100409.59;1717221;82;21158;-79
2021/05/12 02:33:43;;;;;;;9.10;3.55;;;;;;;8.38;66.38;100406.16;1716998;83;21688;-80
2021/05/12 02:36:09;;;;;;;6.42;2.90;;;;;;;8.37;66.22;100408.36;1702473;83;21220;-78
2021/05/12 02:38:36;;;;;;;10.58;3.00;;;;;;;8.35;66.71;100411.46;1677664;85;21062;-79
2021/05/12 02:41:03;;;;;;;7.05;2.95;;;;;;;8.32;66.94;100414.17;1677273;85;21133;-77
2021/05/12 02:43:29;;;;;;;9.28;2.70;;;;;;;8.29;66.77;100418.19;1674467;85;21133;-79
2021/05/12 02:45:56;;;;;;;9.43;3.00;;;;;;;8.27;66.96;100416.05;1673792;85;21066;-80
2021/05/12 02:48:23;;;;;;;7.90;2.83;;;;;;;8.24;66.93;100414.81;1642118;85;21624;-81
2021/05/12 02:50:49;;;;;;;7.42;2.70;;;;;;;8.22;66.91;100417.91;1671238;85;21133;-80
2021/05/12 02:53:16;;;;;;;5.58;2.90;;;;;;;8.19;66.94;100418.85;1647140;80;21063;-79
2021/05/12 02:55:43;;;;;;;6.42;2.70;;;;;;;8.17;67.02;100427.20;1685375;82;21131;-80
2021/05/12 02:58:09;;;;;;;5.67;2.40;;;;;;;8.17;67.23;100426.75;1705611;81;21144;-81
2021/05/12 03:00:39;;;;;;;4.22;2.70;;;;;;;8.18;67.46;100424.52;1700727;83;21090;-79
2021/05/12 03:03:06;;;;;;;6.58;2.92;;;;;;;8.23;67.39;100423.56;1694642;83;21446;-78
2021/05/12 03:05:33;;;;;;;4.35;2.83;;;;;;;8.28;67.24;100423.00;1670001;83;21120;-79
2021/05/12 03:08:00;;;;;;;5.60;2.87;;;;;;;8.35;67.18;100427.20;1683695;83;21138;-82
2021/05/12 03:10:26;;;;;;;3.85;2.25;;;;;;;8.41;66.90;100421.86;1683516;83;21083;-81
2021/05/12 03:12:53;;;;;;;4.58;2.62;;;;;;;8.48;66.74;100424.75;1683658;83;21529;-82
2021/05/12 03:15:24;;;;;;;5.70;2.35;;;;;;;8.59;66.48;100411.38;1711938;82;21779;-82
2021/05/12 03:17:52;;;;;;;4.50;2.22;;;;;;;8.70;66.04;100405.88;1716010;80;21008;-82
2021/05/12 03:20:19;;;;;;;3.33;2.35;;;;;;;8.82;66.43;100410.34;1719381;80;21032;-81
2021/05/12 03:22:46;;;;;;;5.15;1.90;;;;;;;8.96;65.77;100410.00;1719248;80;20956;-82
2021/05/12 03:25:14;;;;;;;6.15;2.45;;;;;;;9.14;64.66;100398.15;1718485;80;21040;-84
2021/05/12 03:27:41;;;;;;;5.35;2.10;;;;;;;9.45;63.87;100400.81;1685651;83;21139;-86
2021/05/12 03:30:10;;;;;;;2.50;1.85;;;;;;;10.03;62.60;100397.34;1686243;83;21084;-87
2021/05/12 03:32:37;;;;;;;6.67;2.00;;;;;;;10.65;60.07;100387.97;1713726;83;21667;-85
2021/05/12 03:35:05;;;;;;;2.55;2.22;;;;;;;11.18;57.78;100391.43;1713981;83;21693;-85
2021/05/12 03:37:32;;;;;;;4.95;1.70;;;;;;;11.60;56.52;100381.59;1713243;82;21501;-85
2021/05/12 03:39:59;;;;;;;2.80;1.87;;;;;;;11.95;55.85;100375.84;1713822;83;21257;-86
2021/05/12 03:42:26;;;;;;;4.47;1.80;;;;;;;12.34;54.28;100381.79;1714068;83;21044;-85
2021/05/12 03:44:53;;;;;;;1.60;1.50;;;;;;;12.71;52.42;100373.67;1686248;83;22682;-89
2021/05/12 03:47:19;;;;;;;3.85;1.55;;;;;;;12.88;51.97;100365.48;1714848;83;21083;-88
2021/05/12 03:49:47;;;;;;;4.72;1.90;;;;;;;13.02;51.18;100364.42;1706619;82;21076;-89
2021/05/12 03:52:14;;;;;;;3.62;2.02;;;;;;;13.15;50.76;100367.41;1704854;83;21068;-88
2021/05/12 03:54:41;;;;;;;5.67;1.55;;;;;;;13.22;50.42;100374.98;1704024;83;21555;-90
2021/05/12 03:57:07;;;;;;;7.47;1.90;;;;;;;13.28;50.45;100377.88;1704641;84;22096;-87
2021/05/12 03:59:34;;;;;;;3.85;1.85;;;;;;;13.44;50.06;100378.06;1684180;84;21076;-89
2021/05/12 04:02:01;;;;;;;3.90;2.05;;;;;;;13.59;49.72;100389.25;1677639;82;21087;-88
2021/05/12 04:04:28;;;;;;;5.80;2.05;;;;;;;13.80;48.93;100381.26;1703859;84;21107;-82
2021/05/12 04:06:55;;;;;;;6.03;2.10;;;;;;;13.85;49.06;100376.16;1704000;83;21084;-82
2021/05/12 04:09:21;;;;;;;4.72;1.75;;;;;;;13.93;48.83;100393.00;1703832;84;21107;-82
2021/05/12 04:11:48;;;;;;;5.83;1.87;;;;;;;13.92;49.11;100400.56;1703626;84;21178;-83
2021/05/12 04:14:15;;;;;;;5.17;1.62;;;;;;;14.09;48.75;100397.59;1683388;84;21198;-82
2021/05/12 04:16:42;;;;;;;3.35;1.60;;;;;;;14.24;48.01;100399.48;1704081;84;21111;-83
2021/05/12 04:19:09;;;;;;;5.05;1.70;;;;;;;14.41;47.93;100402.66;1683421;84;21080;-82
2021/05/12 04:21:35;;;;;;;3.98;1.57;;;;;;;14.54;47.20;100397.20;1704045;84;22154;-83
2021/05/12 04:24:03;;;;;;;2.42;1.45;;;;;;;14.54;46.83;100392.30;1683552;84;21710;-83
2021/05/12 04:26:30;;;;;;;5.83;1.67;;;;;;;14.57;47.07;100402.81;1704274;84;21122;-83
2021/05/12 04:28:57;;;;;;;5.40;1.65;;;;;;;14.57;47.23;100396.19;1703539;84;21087;-73
2021/05/12 04:31:23;;;;;;;3.83;2.00;;;;;;;14.61;46.55;100384.03;1682792;84;21064;-73
2021/05/12 04:33:50;;;;;;;3.10;1.90;;;;;;;14.65;46.66;100395.32;1681631;84;21139;-72
2021/05/12 04:36:17;;;;;;;3.60;2.40;;;;;;;14.53;46.80;100391.45;1691748;83;21189;-73
2021/05/12 04:38:43;;;;;;;7.37;2.35;;;;;;;14.54;47.15;100391.90;1702647;82;21068;-72
2021/05/12 04:41:10;;;;;;;2.92;1.95;;;;;;;14.63;47.21;100394.53;1681905;84;21120;-71
2021/05/12 04:43:37;;;;;;;6.40;2.00;;;;;;;14.86;46.96;100397.36;1681569;84;21092;-72
2021/05/12 04:46:04;;;;;;;6.25;2.72;;;;;;;15.09;46.48;100392.20;1702909;82;21104;-72
2021/05/12 04:48:30;;;;;;;13.58;2.55;;;;;;;15.22;45.89;100389.31;1705521;81;21154;-73
2021/05/12 04:50:59;;;;;;;6.58;2.05;;;;;;;15.34;45.98;100393.12;1715616;83;21089;-73
2021/05/12 04:53:25;;;;;;;6.42;2.15;;;;;;;15.46;45.16;100393.81;1667512;83;21075;-72
2021/05/12 04:55:52;;;;;;;8.35;1.80;;;;;;;15.56;45.60;100394.17;1710432;82;21528;-70
2021/05/12 04:58:20;;;;;;;2.27;1.65;;;;;;;15.50;44.74;100388.70;1678221;83;21127;-70
2021/05/12 05:00:47;;;;;;;4.85;1.65;;;;;;;15.51;45.13;100386.94;1704136;83;21083;-70
2021/05/12 05:03:14;;;;;;;4.60;1.80;;;;;;;15.51;44.74;100392.25;1661475;83;23151;-73
2021/05/12 05:05:41;;;;;;;6.80;1.77;;;;;;;15.53;45.31;100393.02;1645111;85;21123;-72
2021/05/12 05:08:08;;;;;;;4.83;1.80;;;;;;;15.63;45.25;100384.94;1619961;85;21244;-71
2021/05/12 05:10:34;;;;;;;13.22;2.10;;;;;;;15.87;44.54;100393.86;1633131;85;21160;-73
2021/05/12 05:13:01;;;;;;;3.42;1.15;;;;;;;15.91;44.48;100390.11;1603736;85;21179;-72
2021/05/12 05:15:28;;;;;;;6.75;1.60;;;;;;;16.22;43.71;100391.92;1628615;85;21101;-70
2021/05/12 05:17:54;;;;;;;8.50;2.02;;;;;;;16.53;42.59;100384.38;1598148;88;21129;-71
2021/05/12 05:20:23;;;;;;;7.62;1.70;;;;;;;16.48;41.61;100385.59;1585386;89;21105;-71
2021/05/12 05:22:50;;;;;;;5.22;1.77;;;;;;;16.24;42.23;100382.08;1645145;87;21329;-70
2021/05/12 05:25:16;;;;;;;10.32;2.90;;;;;;;15.93;43.22;100387.75;1629672;86;21152;-72
2021/05/12 05:27:43;;;;;;;15.30;2.20;;;;;;;15.94;42.86;100387.27;1618302;87;21056;-71
2021/05/12 05:30:12;;;;;;;10.63;2.12;;;;;;;15.92;43.19;100387.38;1595891;88;21159;-70
2021/05/12 05:32:59;;;;;;;8.43;1.92;;;;;;;15.92;43.06;100386.53;1616177;88;21104;-70
2021/05/12 05:35:44;;;;;;;4.22;1.72;;;;;;;16.01;42.74;100392.66;1624010;86;21284;-71
2021/05/12 05:38:31;;;;;;;6.70;2.02;;;;;;;15.87;42.49;100393.86;1611752;87;21132;-72
2021/05/12 05:41:18;;;;;;;10.68;2.10;;;;;;;15.69;43.29;100396.56;1599611;88;21663;-71
2021/05/12 05:44:03;;;;;;;9.55;2.08;;;;;;;15.61;43.93;100396.11;1629407;87;21113;-70
2021/05/12 05:46:48;;;;;;;13.58;2.20;;;;;;;15.73;43.06;100386.20;1638646;85;21122;-72
2021/05/12 05:49:35;;;;;;;5.87;1.42;;;;;;;15.96;42.62;100380.08;1648435;85;22119;-72
2021/05/12 05:52:20;;;;;;;3.00;1.20;;;;;;;16.12;41.70;100380.94;1665017;84;21088;-72
2021/05/12 05:55:07;;;;;;;5.08;1.17;;;;;;;16.09;41.11;100370.48;1659365;84;21076;-72
2021/05/12 05:57:53;;;;;;;10.78;1.32;;;;;;;16.00;41.03;100369.67;1658869;84;21179;-70
2021/05/12 06:00:40;;;;;;;3.98;1.15;;;;;;;15.90;41.36;100371.14;1639836;84;21067;-70
2021/05/12 06:03:08;;;;;;;5.08;1.22;;;;;;;16.11;41.17;100371.27;1660872;84;21162;-72
2021/05/12 06:05:53;;;;;;;3.58;1.20;;;;;;;16.36;40.50;100369.88;1661851;84;21127;-71
2021/05/12 06:08:38;;;;;;;2.47;1.00;;;;;;;16.52;39.97;100358.75;1664508;84;21301;-71
2021/05/12 06:11:23;;;;;;;7.08;1.22;;;;;;;16.27;39.70;100361.11;1660727;84;22579;-72
2021/05/12 06:14:08;;;;;;;9.05;1.20;;;;;;;15.76;40.50;100364.38;1648013;81;21076;-70
2021/05/12 06:16:54;;;;;;;4.90;0.78;;;;;;;15.68;41.37;100366.95;1652957;84;21141;-70
2021/05/12 06:19:31;;;;;;;7.03;1.02;;;;;;;15.87;40.15;100373.95;1615719;87;21109;-72
2021/05/12 06:22:16;;;;;;;3.75;0.80;;;;;;;16.03;39.88;100369.50;1665299;84;21104;-70
2021/05/12 06:25:02;;;;;;;5.30;0.80;;;;;;;16.21;39.28;100368.09;1659033;85;21135;-71
2021/05/12 06:27:50;;;;;;;7.90;1.00;;;;;;;16.37;39.48;100360.95;1655843;86;21109;-71
2021/05/12 06:30:34;;;;;;;9.48;1.30;;;;;;;16.10;40.39;100361.59;1663748;84;21131;-71
2021/05/12 06:33:19;;;;;;;5.08;1.45;;;;;;;15.78;41.00;100363.39;1636851;85;22260;-72
2021/05/12 06:36:06;;;;;;;5.35;1.37;;;;;;;15.19;42.81;100370.91;1636932;86;21075;-70
2021/05/12 06:38:47;;;;;;;7.80;1.50;;;;;;;15.01;43.21;100363.91;1607031;85;22298;-71
2021/05/12 06:41:15;;;;;;;7.25;1.40;;;;;;;15.14;43.06;100357.05;1635297;87;21760;-70
2021/05/12 06:43:42;;;;;;;8.65;1.50;;;;;;;15.57;42.71;100360.04;1634977;87;21212;-71
2021/05/12 06:46:09;;;;;;;4.87;0.80;;;;;;;15.73;42.30;100354.34;1638827;85;21568;-72
2021/05/12 06:48:35;;;;;;;4.97;0.95;;;;;;;15.60;40.80;100363.88;1607066;86;21318;-71
2021/05/12 06:51:03;;;;;;;13.13;1.10;;;;;;;15.52;40.85;100362.94;1639333;85;21114;-72
2021/05/12 06:53:35;;;;;;;4.50;1.45;;;;;;;15.14;42.10;100366.33;1628896;86;21123;-72
2021/05/12 06:56:03;;;;;;;12.85;1.47;;;;;;;15.02;42.37;100374.90;1624532;86;21326;-71
2021/05/12 06:58:30;;;;;;;21.57;1.40;;;;;;;14.83;42.41;100361.26;1646486;85;21102;-71
2021/05/12 07:00:57;;;;;;;14.70;1.42;;;;;;;14.66;43.36;100360.80;1597291;88;21044;-71
2021/05/12 07:03:24;;;;;;;3.00;1.20;;;;;;;14.57;43.97;100360.41;1640796;87;21150;-71
2021/05/12 07:05:52;;;;;;;10.65;1.10;;;;;;;14.51;43.93;100356.70;1587613;87;21776;-70
2021/05/12 07:08:20;;;;;;;2.70;1.10;;;;;;;14.21;44.44;100367.86;1582172;88;21711;-71
2021/05/12 07:10:46;;;;;;;6.42;1.07;;;;;;;14.01;45.00;100367.03;1622479;87;21105;-71
2021/05/12 07:13:13;;;;;;;6.53;1.30;;;;;;;13.91;45.60;100378.97;1635515;84;21946;-72
2021/05/12 07:15:40;;;;;;;8.38;1.20;;;;;;;13.76;46.91;100362.50;1637862;85;21737;-71
2021/05/12 07:18:07;;;;;;;6.40;1.80;;;;;;;13.75;46.95;100367.39;1657883;85;21084;-71
2021/05/12 07:20:34;;;;;;;4.47;1.30;;;;;;;13.62;47.96;100369.28;1646374;86;21197;-70
2021/05/12 07:23:19;;;;;;;3.47;1.57;;;;;;;13.59;47.74;100370.73;1647045;85;21144;-72
2021/05/12 07:25:40;;;;;;;5.17;1.10;;;;;;;13.53;48.18;100371.03;1633350;85;21133;-74
2021/05/12 07:28:07;;;;;;;5.10;1.17;;;;;;;13.51;48.04;100370.23;1595123;87;21633;-71
2021/05/12 07:30:34;;;;;;;3.02;1.12;;;;;;;13.36;47.79;100376.20;1619123;87;21137;-72
2021/05/12 07:33:01;;;;;;;7.08;1.22;;;;;;;13.26;48.61;100368.27;1617124;88;21176;-74
2021/05/12 07:35:28;;;;;;;7.80;1.35;;;;;;;13.23;48.68;100376.73;1602883;87;21538;-73
2021/05/12 07:37:54;;;;;;;4.22;1.32;;;;;;;13.20;48.65;100362.33;1658158;85;21103;-74
2021/05/12 07:40:21;;;;;;;5.85;1.10;;;;;;;13.16;49.33;100366.50;1657664;85;21151;-72
2021/05/12 07:42:49;;;;;;;8.03;1.32;;;;;;;13.12;49.10;100357.83;1657603;85;21091;-71
2021/05/12 07:45:16;;;;;;;9.48;1.80;;;;;;;13.10;49.57;100364.97;1617337;87;21127;-72
2021/05/12 07:47:43;;;;;;;9.58;1.77;;;;;;;13.13;49.72;100378.51;1610225;85;21239;-71
2021/05/12 07:50:11;;;;;;;6.20;1.42;;;;;;;13.01;49.64;100371.97;1613123;87;21083;-72
2021/05/12 07:52:38;;;;;;;9.63;1.55;;;;;;;12.93;50.04;100392.58;1654873;85;21214;-72
2021/05/12 07:55:06;;;;;;;8.48;1.57;;;;;;;12.85;50.52;100382.81;1655916;85;21174;-73
2021/05/12 07:57:32;;;;;;;7.15;1.47;;;;;;;12.86;50.90;100373.94;1655714;85;21088;-72
2021/05/12 08:00:01;;;;;;;7.20;1.80;;;;;;;12.88;51.23;100379.55;1665787;84;21097;-72
2021/05/12 08:02:30;;;;;;;8.43;1.20;;;;;;;12.86;51.05;100374.83;1664111;84;21091;-71
2021/05/12 08:04:57;;;;;;;10.35;2.10;;;;;;;12.88;51.10;100365.48;1669339;84;21632;-72
2021/05/12 08:07:23;;;;;;;13.15;2.12;;;;;;;12.88;50.81;100376.06;1667991;84;21091;-72
2021/05/12 08:09:50;;;;;;;9.78;2.30;;;;;;;12.78;51.57;100367.20;1645735;85;21749;-71
2021/05/12 08:12:19;;;;;;;9.83;2.80;;;;;;;12.73;51.38;100363.90;1645807;85;21806;-72
2021/05/12 08:14:46;;;;;;;12.33;2.35;;;;;;;12.75;51.67;100367.34;1644295;85;21074;-72
2021/05/12 08:17:13;;;;;;;14.55;2.20;;;;;;;12.85;51.18;100357.23;1669938;84;21054;-71
2021/05/12 08:19:40;;;;;;;4.92;1.90;;;;;;;12.97;50.74;100358.48;1664865;84;21085;-70
2021/05/12 08:22:06;;;;;;;8.23;2.10;;;;;;;13.05;50.82;100365.63;1668788;84;21796;-72
2021/05/12 08:24:33;;;;;;;10.95;1.25;;;;;;;13.06;49.74;100359.41;1645277;84;21523;-73
2021/05/12 08:27:05;;;;;;;5.95;1.32;;;;;;;13.04;49.53;100349.83;1641906;86;21668;-73
2021/05/12 08:29:33;;;;;;;5.10;1.52;;;;;;;13.05;49.67;100344.48;1661280;86;21923;-72
2021/05/12 08:32:00;;;;;;;8.63;1.90;;;;;;;13.08;49.60;100346.98;1635105;86;21570;-72
2021/05/12 08:34:27;;;;;;;9.28;2.10;;;;;;;13.06;49.71;100339.58;1666137;84;21643;-72
2021/05/12 08:36:55;;;;;;;15.00;2.17;;;;;;;13.10;49.71;100342.48;1664645;84;21637;-71
2021/05/12 08:39:22;;;;;;;8.65;2.70;;;;;;;13.12;50.12;100343.75;1657739;85;21099;-71
2021/05/12 08:41:51;;;;;;;7.03;2.40;;;;;;;13.20;49.66;100336.32;1665345;84;21059;-71
2021/05/12 08:44:18;;;;;;;7.05;1.90;;;;;;;13.32;49.20;100335.83;1669666;84;21113;-72
2021/05/12 08:46:45;;;;;;;10.40;1.67;;;;;;;13.40;48.37;100330.17;1666562;84;21740;-72
2021/05/12 08:49:12;;;;;;;4.62;1.40;;;;;;;13.37;48.44;100331.18;1662548;84;21598;-71
2021/05/12 08:51:39;;;;;;;4.30;1.60;;;;;;;13.29;48.63;100321.87;1628334;85;21578;-71
2021/05/12 08:54:06;;;;;;;4.35;1.72;;;;;;;13.20;48.88;100330.59;1640583;85;21126;-73
2021/05/12 08:56:33;;;;;;;4.30;1.30;;;;;;;13.15;48.99;100328.59;1639361;85;21122;-71
2021/05/12 08:59:01;;;;;;;6.00;1.42;;;;;;;13.05;49.24;100324.66;1628534;86;21114;-72
2021/05/12 09:01:28;;;;;;;11.15;1.47;;;;;;;12.99;49.80;100327.55;1612778;87;21218;-73
2021/05/12 09:03:55;;;;;;;10.13;2.20;;;;;;;12.91;49.57;100322.62;1593206;88;21121;-73
2021/05/12 09:06:22;;;;;;;8.08;2.25;;;;;;;12.88;49.88;100325.84;1613530;88;21138;-72
2021/05/12 09:08:50;;;;;;;4.87;1.90;;;;;;;12.92;49.92;100316.39;1611953;88;21163;-72
2021/05/12 09:11:16;;;;;;;2.42;1.57;;;;;;;13.03;50.08;100320.36;1627538;86;22916;-73
2021/05/12 09:13:46;;;;;;;4.08;1.80;;;;;;;13.20;49.40;100314.73;1627992;86;21875;-73
2021/05/12 09:16:24;;;;;;;3.83;1.52;;;;;;;13.47;48.82;100313.09;1597575;88;21131;-73
2021/05/12 09:19:15;;;;;;;3.47;1.60;;;;;;;13.84;48.47;100298.13;1631539;87;21166;-72
2021/05/12 09:21:52;;;;;;;2.33;1.20;;;;;;;14.37;47.46;100288.48;1602451;89;21127;-73
2021/05/12 09:24:25;;;;;;;2.35;1.12;;;;;;;14.80;45.76;100287.67;1630936;87;21489;-73
2021/05/12 09:26:55;;;;;;;4.90;1.10;;;;;;;15.00;45.50;100281.30;1609708;87;21505;-74
2021/05/12 09:29:28;;;;;;;10.32;1.50;;;;;;;15.05;45.06;100284.59;1603062;87;21668;-71
2021/05/12 09:32:09;;;;;;;9.38;1.17;;;;;;;15.00;45.58;100285.27;1611989;87;21161;-72
2021/05/12 09:34:57;;;;;;;;;;;;;;;14.95;44.77;100287.31;1594889;88;21163;-74
2021/05/12 09:37:31;;;;;;;15.63;2.87;;;;;;;14.83;44.70;100284.37;1611019;86;22310;-78
2021/05/12 09:40:00;;;;;;;14.58;1.20;;;;;;;14.71;45.29;100282.36;1627513;85;21207;-74
2021/05/12 09:42:26;;;;;;;7.47;1.02;;;;;;;14.81;44.19;100287.56;1628417;85;21661;-73
2021/05/12 09:45:21;;;;;;;8.28;2.60;;;;;;;14.88;42.60;100288.98;1630118;86;21110;-73
2021/05/12 09:47:51;;;;;;;16.97;4.28;;;;;;;14.93;41.87;100275.93;1611366;87;21639;-75
2021/05/12 09:50:29;;;;;;;10.00;3.52;;;;;;;14.91;42.88;100277.36;1567546;87;21665;-73
2021/05/12 09:53:03;;;;;;;6.87;2.00;;;;;;;14.92;43.02;100267.60;1603963;88;21170;-75
2021/05/12 09:55:45;;;;;;;5.53;1.87;;;;;;;14.96;42.10;100265.19;1579425;89;21142;-73
2021/05/12 09:58:17;;;;;;;10.38;2.95;;;;;;;15.02;42.19;100270.14;1578995;88;21188;-75
2021/05/12 10:00:48;;;;;;;8.78;2.80;;;;;;;15.13;42.45;100265.13;1564244;90;21181;-74
2021/05/12 10:03:15;;;;;;;2.67;1.10;;;;;;;15.27;41.89;100256.41;1593122;89;21107;-71
2021/05/12 10:06:02;;;;;;;8.20;1.60;;;;;;;15.42;41.81;100262.70;1598182;88;21131;-74
2021/05/12 10:08:33;;;;;;;5.58;1.70;;;;;;;15.79;41.02;100260.67;1599330;88;21826;-73
2021/05/12 10:11:04;;;;;;;9.08;3.60;;;;;;;15.96;40.72;100265.87;1578205;88;21159;-73
2021/05/12 10:13:35;;;;;;;8.33;2.80;;;;;;;15.94;40.78;100254.47;1597642;88;21294;-75
2021/05/12 10:16:04;;;;;;;;;;;;;;;16.03;41.21;100255.27;1607181;88;21207;-76
2021/05/12 10:18:31;;;;;;;11.03;2.90;;;;;;;16.14;40.12;100258.16;1602121;88;20256;-74
2021/05/12 10:21:01;;;;;;;12.82;3.60;;;;;;;16.01;40.51;100250.55;1594463;89;21115;-76
2021/05/12 10:23:28;;;;;;;5.35;1.80;;;;;;;15.86;40.39;100250.09;1578584;89;21304;-74
2021/05/12 10:25:54;;;;;;;14.70;4.80;;;;;;;15.68;40.80;100239.52;1578518;88;21143;-76
2021/05/12 10:28:21;;;;;;;9.35;1.80;;;;;;;15.61;41.18;100240.81;1596910;88;21136;-74
2021/05/12 10:30:56;;;;;;;13.43;2.15;;;;;;;15.55;40.41;100247.78;1612360;87;21123;-75
2021/05/12 10:33:47;;;;;;;12.98;1.67;;;;;;;15.46;40.70;100249.17;1591944;88;21244;-73
2021/05/12 10:36:14;;;;;;;13.25;2.00;;;;;;;15.33;40.32;100236.67;1592995;87;21681;-75
2021/05/12 10:38:45;;;;;;;10.38;2.08;;;;;;;15.26;41.69;100235.67;1567101;88;21745;-73
2021/05/12 10:41:40;;;;;;;5.87;1.00;;;;;;;15.31;42.14;100226.98;1597286;87;21804;-73
2021/05/12 10:44:20;;;;;;;7.95;1.60;;;;;;;15.39;42.76;100229.23;1578014;87;21186;-74
2021/05/12 10:47:05;;;;;;;18.60;2.40;;;;;;;15.71;42.23;100234.09;1574591;89;21647;-73
2021/05/12 10:49:32;;;;;;;13.85;1.50;;;;;;;16.12;41.23;100220.20;1601201;87;21712;-73
2021/05/12 10:52:08;;;;;;;9.58;1.55;;;;;;;16.73;40.26;100214.84;1592054;88;21112;-72
2021/05/12 10:54:45;;;;;;;8.70;1.22;;;;;;;17.09;39.26;100213.07;1654555;86;21807;-73
2021/05/12 10:57:46;;;;;;;15.50;2.65;;;;;;;17.08;37.71;100220.66;1646539;86;21101;-74
2021/05/12 11:00:15;;;;;;;10.05;2.00;;;;;;;16.75;39.40;100214.27;1645727;85;21099;-74
2021/05/12 11:03:04;;;;;;;6.75;1.77;;;;;;;16.54;40.18;100207.98;1654129;84;21143;-74
2021/05/12 11:05:53;;;;;;;6.87;2.17;;;;;;;16.51;40.08;100204.64;1634580;85;21656;-74
2021/05/12 11:08:20;;;;;;;6.83;1.22;;;;;;;16.55;39.58;100208.34;1655281;86;21143;-73
2021/05/12 11:11:00;;;;;;;13.30;1.70;;;;;;;16.80;39.01;100197.59;1614480;87;21653;-75
2021/05/12 11:13:30;;;;;;;13.93;1.72;;;;;;;17.12;38.55;100196.05;1646542;85;21063;-74
2021/05/12 11:16:01;;;;;;;11.70;1.22;;;;;;;17.47;38.56;100190.28;1665110;84;21107;-72
2021/05/12 11:18:45;;;;;;;12.78;2.30;;;;;;;17.80;37.51;100181.88;1653159;85;21095;-72
2021/05/12 11:21:26;;;;;;;6.75;1.12;;;;;;;17.77;36.32;100190.08;1654398;84;21142;-73
2021/05/12 11:24:19;;;;;;;14.15;1.27;;;;;;;17.58;36.78;100187.78;1657180;84;21138;-73
2021/05/12 11:31:26;;;;;;;9.68;1.87;;;;;;;16.99;37.61;100191.48;1650397;85;21128;-71
2021/05/12 11:31:38;;;;;;;7.58;1.10;;;;;;;16.74;38.50;100201.91;1643196;85;21087;-72
2021/05/12 11:34:05;;;;;;;2.00;1.02;;;;;;;16.58;39.05;100196.67;1658917;84;21173;-73
2021/05/12 11:36:36;;;;;;;7.00;0.95;;;;;;;16.60;39.32;100205.89;1652629;84;21095;-73
2021/05/12 11:39:01;;;;;;;8.08;1.45;;;;;;;16.64;39.13;100194.98;1647533;86;21107;-72
2021/05/12 11:41:27;;;;;;;2.80;1.25;;;;;;;16.76;39.09;100182.73;1659742;84;21206;-73
2021/05/12 11:43:56;;;;;;;9.98;1.22;;;;;;;16.81;39.63;100180.66;1640933;86;21115;-73
2021/05/12 11:46:40;;;;;;;3.00;1.10;;;;;;;16.82;39.48;100183.72;1654141;84;21149;-73